sensor_id;sensor_type;location;lat;lon;timestamp;temperature;humidity
28947;DHT22;16052;50.930;5.326;2023-06-04T00:01:05;19.90;99.90
28947;DHT22;16052;50.930;5.326;2023-06-04T00:03:31;19.90;99.90
28947;DHT22;16052;50.930;5.326;2023-06-04T00:05:57;19.90;99.90
28947;DHT22;16052;50.930;5.326;2023-06-04T00:08:23;19.90;99.90
28947;DHT22;16052;50.930;5.326;2023-06-04T00:10:49;19.80;99.90
28947;DHT22;16052;50.930;5.326;2023-06-04T00:13:14;19.70;99.90
28947;DHT22;16052;50.930;5.326;2023-06-04T00:15:40;19.60;1.00
28947;DHT22;16052;50.930;5.326;2023-06-04T00:18:07;19.60;1.00
28947;DHT22;16052;50.930;5.326;2023-06-04T00:20:32;19.60;1.00
28947;DHT22;16052;50.930;5.326;2023-06-04T00:22:58;19.60;1.00
28947;DHT22;16052;50.930;5.326;2023-06-04T00:25:23;19.60;1.00
28947;DHT22;16052;50.930;5.326;2023-06-04T00:27:49;19.60;1.00
28947;DHT22;16052;50.930;5.326;2023-06-04T00:30:15;19.50;1.00
28947;DHT22;16052;50.930;5.326;2023-06-04T00:32:41;19.50;1.00
28947;DHT22;16052;50.930;5.326;2023-06-04T00:35:06;19.50;1.00
28947;DHT22;16052;50.930;5.326;2023-06-04T00:37:32;19.40;1.00
28947;DHT22;16052;50.930;5.326;2023-06-04T00:39:59;19.40;1.00
28947;DHT22;16052;50.930;5.326;2023-06-04T00:42:25;19.30;1.00
28947;DHT22;16052;50.930;5.326;2023-06-04T00:44:50;19.30;1.00
28947;DHT22;16052;50.930;5.326;2023-06-04T00:47:17;19.20;1.00
28947;DHT22;16052;50.930;5.326;2023-06-04T00:49:43;19.20;1.00
28947;DHT22;16052;50.930;5.326;2023-06-04T00:52:10;19.00;1.00
28947;DHT22;16052;50.930;5.326;2023-06-04T00:54:37;19.10;1.00
28947;DHT22;16052;50.930;5.326;2023-06-04T00:57:04;19.00;1.00
28947;DHT22;16052;50.930;5.326;2023-06-04T00:59:31;19.00;5.10
28947;DHT22;16052;50.930;5.326;2023-06-04T01:02:20;18.90;30.10
28947;DHT22;16052;50.930;5.326;2023-06-04T01:05:06;18.80;54.40
28947;DHT22;16052;50.930;5.326;2023-06-04T01:07:35;18.70;92.00
28947;DHT22;16052;50.930;5.326;2023-06-04T01:10:01;18.60;99.90
28947;DHT22;16052;50.930;5.326;2023-06-04T01:12:27;18.50;99.90
28947;DHT22;16052;50.930;5.326;2023-06-04T01:14:52;18.50;99.90
28947;DHT22;16052;50.930;5.326;2023-06-04T01:17:40;18.50;99.90
28947;DHT22;16052;50.930;5.326;2023-06-04T01:20:18;18.50;99.90
28947;DHT22;16052;50.930;5.326;2023-06-04T01:27:55;18.30;99.90
28947;DHT22;16052;50.930;5.326;2023-06-04T01:30:30;18.20;99.90
28947;DHT22;16052;50.930;5.326;2023-06-04T01:32:58;18.10;99.90
28947;DHT22;16052;50.930;5.326;2023-06-04T01:35:25;18.10;99.90
28947;DHT22;16052;50.930;5.326;2023-06-04T01:37:51;17.90;99.90
28947;DHT22;16052;50.930;5.326;2023-06-04T01:40:17;17.90;1.00
28947;DHT22;16052;50.930;5.326;2023-06-04T01:42:43;18.00;1.00
28947;DHT22;16052;50.930;5.326;2023-06-04T01:45:09;18.00;1.00
28947;DHT22;16052;50.930;5.326;2023-06-04T01:47:35;18.10;1.00
28947;DHT22;16052;50.930;5.326;2023-06-04T01:50:02;17.90;1.00
28947;DHT22;16052;50.930;5.326;2023-06-04T01:52:28;17.80;1.00
28947;DHT22;16052;50.930;5.326;2023-06-04T01:54:53;17.80;1.00
28947;DHT22;16052;50.930;5.326;2023-06-04T01:57:23;17.60;12.10
28947;DHT22;16052;50.930;5.326;2023-06-04T01:59:49;17.60;99.90
28947;DHT22;16052;50.930;5.326;2023-06-04T02:02:16;17.50;99.90
28947;DHT22;16052;50.930;5.326;2023-06-04T02:04:42;17.50;99.90
28947;DHT22;16052;50.930;5.326;2023-06-04T02:07:11;17.50;99.90
28947;DHT22;16052;50.930;5.326;2023-06-04T02:09:43;17.40;99.90
28947;DHT22;16052;50.930;5.326;2023-06-04T02:12:09;17.50;99.90
28947;DHT22;16052;50.930;5.326;2023-06-04T02:14:34;17.30;1.00
28947;DHT22;16052;50.930;5.326;2023-06-04T02:17:00;17.30;1.00
28947;DHT22;16052;50.930;5.326;2023-06-04T02:19:26;17.20;1.00
28947;DHT22;16052;50.930;5.326;2023-06-04T02:21:55;17.10;99.90
28947;DHT22;16052;50.930;5.326;2023-06-04T02:24:22;17.10;99.90
28947;DHT22;16052;50.930;5.326;2023-06-04T02:26:47;17.10;99.90
28947;DHT22;16052;50.930;5.326;2023-06-04T02:29:13;17.10;1.00
28947;DHT22;16052;50.930;5.326;2023-06-04T02:31:39;17.10;1.00
28947;DHT22;16052;50.930;5.326;2023-06-04T02:34:04;17.10;4.00
28947;DHT22;16052;50.930;5.326;2023-06-04T02:36:30;17.10;99.90
28947;DHT22;16052;50.930;5.326;2023-06-04T02:38:56;17.10;99.90
28947;DHT22;16052;50.930;5.326;2023-06-04T02:41:22;17.00;99.90
28947;DHT22;16052;50.930;5.326;2023-06-04T02:43:48;16.90;1.00
28947;DHT22;16052;50.930;5.326;2023-06-04T02:46:13;16.80;99.90
28947;DHT22;16052;50.930;5.326;2023-06-04T02:48:39;16.90;99.90
28947;DHT22;16052;50.930;5.326;2023-06-04T02:51:05;16.80;1.00
28947;DHT22;16052;50.930;5.326;2023-06-04T02:53:30;16.80;99.90
28947;DHT22;16052;50.930;5.326;2023-06-04T02:55:56;16.70;99.90
28947;DHT22;16052;50.930;5.326;2023-06-04T02:58:22;16.70;1.00
28947;DHT22;16052;50.930;5.326;2023-06-04T03:00:52;16.70;99.90
28947;DHT22;16052;50.930;5.326;2023-06-04T03:03:18;16.60;99.90
28947;DHT22;16052;50.930;5.326;2023-06-04T03:05:43;16.50;1.00
28947;DHT22;16052;50.930;5.326;2023-06-04T03:08:09;16.60;1.00
28947;DHT22;16052;50.930;5.326;2023-06-04T03:10:35;16.60;46.50
28947;DHT22;16052;50.930;5.326;2023-06-04T03:13:00;16.40;99.90
28947;DHT22;16052;50.930;5.326;2023-06-04T03:15:26;16.40;99.90
28947;DHT22;16052;50.930;5.326;2023-06-04T03:17:52;16.40;1.00
28947;DHT22;16052;50.930;5.326;2023-06-04T03:20:18;16.40;1.00
28947;DHT22;16052;50.930;5.326;2023-06-04T03:22:43;16.60;1.00
28947;DHT22;16052;50.930;5.326;2023-06-04T03:25:09;16.60;1.00
28947;DHT22;16052;50.930;5.326;2023-06-04T03:27:35;16.50;1.00
28947;DHT22;16052;50.930;5.326;2023-06-04T03:30:01;16.60;1.00
28947;DHT22;16052;50.930;5.326;2023-06-04T03:32:28;16.60;1.00
28947;DHT22;16052;50.930;5.326;2023-06-04T03:34:54;16.70;1.00
28947;DHT22;16052;50.930;5.326;2023-06-04T03:37:19;16.60;1.00
28947;DHT22;16052;50.930;5.326;2023-06-04T03:39:45;16.50;1.00
28947;DHT22;16052;50.930;5.326;2023-06-04T03:42:10;16.40;99.90
28947;DHT22;16052;50.930;5.326;2023-06-04T03:44:36;16.50;99.90
28947;DHT22;16052;50.930;5.326;2023-06-04T03:47:05;16.40;99.90
28947;DHT22;16052;50.930;5.326;2023-06-04T03:49:30;16.40;99.90
28947;DHT22;16052;50.930;5.326;2023-06-04T03:51:56;16.40;99.90
28947;DHT22;16052;50.930;5.326;2023-06-04T03:54:22;16.50;99.90
28947;DHT22;16052;50.930;5.326;2023-06-04T03:56:47;16.50;99.90
28947;DHT22;16052;50.930;5.326;2023-06-04T03:59:13;16.60;99.90
28947;DHT22;16052;50.930;5.326;2023-06-04T04:01:39;16.60;99.90
28947;DHT22;16052;50.930;5.326;2023-06-04T04:04:05;16.50;99.90
28947;DHT22;16052;50.930;5.326;2023-06-04T04:06:31;16.70;99.90
28947;DHT22;16052;50.930;5.326;2023-06-04T04:08:56;16.70;99.90
28947;DHT22;16052;50.930;5.326;2023-06-04T04:11:23;16.70;99.90
28947;DHT22;16052;50.930;5.326;2023-06-04T04:13:49;16.70;99.90
28947;DHT22;16052;50.930;5.326;2023-06-04T04:16:15;16.70;99.90
28947;DHT22;16052;50.930;5.326;2023-06-04T04:18:42;16.70;99.90
28947;DHT22;16052;50.930;5.326;2023-06-04T04:21:09;16.70;99.90
28947;DHT22;16052;50.930;5.326;2023-06-04T04:23:38;16.80;99.90
28947;DHT22;16052;50.930;5.326;2023-06-04T04:26:05;16.70;99.90
28947;DHT22;16052;50.930;5.326;2023-06-04T04:28:32;16.60;99.90
28947;DHT22;16052;50.930;5.326;2023-06-04T04:31:00;16.50;99.90
28947;DHT22;16052;50.930;5.326;2023-06-04T04:33:31;16.40;1.00
28947;DHT22;16052;50.930;5.326;2023-06-04T04:36:02;16.50;1.00
28947;DHT22;16052;50.930;5.326;2023-06-04T04:38:27;16.40;1.00
28947;DHT22;16052;50.930;5.326;2023-06-04T04:40:54;16.40;1.00
28947;DHT22;16052;50.930;5.326;2023-06-04T04:43:38;16.40;1.00
28947;DHT22;16052;50.930;5.326;2023-06-04T04:46:05;16.40;1.00
28947;DHT22;16052;50.930;5.326;2023-06-04T04:48:31;16.40;1.00
28947;DHT22;16052;50.930;5.326;2023-06-04T04:50:57;16.40;1.00
28947;DHT22;16052;50.930;5.326;2023-06-04T04:53:23;16.50;1.00
28947;DHT22;16052;50.930;5.326;2023-06-04T04:55:49;16.50;1.00
28947;DHT22;16052;50.930;5.326;2023-06-04T04:58:15;16.30;1.00
28947;DHT22;16052;50.930;5.326;2023-06-04T05:00:41;16.40;1.00
28947;DHT22;16052;50.930;5.326;2023-06-04T05:03:07;16.40;1.00
28947;DHT22;16052;50.930;5.326;2023-06-04T05:05:32;16.50;1.00
28947;DHT22;16052;50.930;5.326;2023-06-04T05:07:58;16.40;1.00
28947;DHT22;16052;50.930;5.326;2023-06-04T05:10:24;16.40;1.00
28947;DHT22;16052;50.930;5.326;2023-06-04T05:12:54;16.50;1.00
28947;DHT22;16052;50.930;5.326;2023-06-04T05:15:20;16.60;1.00
28947;DHT22;16052;50.930;5.326;2023-06-04T05:17:46;16.80;1.00
28947;DHT22;16052;50.930;5.326;2023-06-04T05:20:12;16.90;1.00
28947;DHT22;16052;50.930;5.326;2023-06-04T05:22:39;17.00;1.00
28947;DHT22;16052;50.930;5.326;2023-06-04T05:25:05;16.90;1.00
28947;DHT22;16052;50.930;5.326;2023-06-04T05:27:34;16.90;1.00
28947;DHT22;16052;50.930;5.326;2023-06-04T05:30:01;17.00;1.00
28947;DHT22;16052;50.930;5.326;2023-06-04T05:32:27;17.00;1.00
28947;DHT22;16052;50.930;5.326;2023-06-04T05:34:58;17.00;1.00
28947;DHT22;16052;50.930;5.326;2023-06-04T05:37:27;17.10;1.00
28947;DHT22;16052;50.930;5.326;2023-06-04T05:39:55;17.10;1.00
28947;DHT22;16052;50.930;5.326;2023-06-04T05:42:21;17.20;1.00
28947;DHT22;16052;50.930;5.326;2023-06-04T05:44:47;17.20;1.00
28947;DHT22;16052;50.930;5.326;2023-06-04T05:47:14;17.20;1.00
28947;DHT22;16052;50.930;5.326;2023-06-04T05:49:40;17.20;1.00
28947;DHT22;16052;50.930;5.326;2023-06-04T05:52:06;17.20;1.00
28947;DHT22;16052;50.930;5.326;2023-06-04T05:54:32;17.30;1.00
28947;DHT22;16052;50.930;5.326;2023-06-04T05:56:58;17.40;1.00
28947;DHT22;16052;50.930;5.326;2023-06-04T05:59:24;17.50;99.90
28947;DHT22;16052;50.930;5.326;2023-06-04T06:01:49;17.40;99.90
28947;DHT22;16052;50.930;5.326;2023-06-04T06:04:15;17.30;99.90
28947;DHT22;16052;50.930;5.326;2023-06-04T06:06:42;17.40;99.90
28947;DHT22;16052;50.930;5.326;2023-06-04T06:09:14;17.60;99.90
28947;DHT22;16052;50.930;5.326;2023-06-04T06:11:40;17.50;99.90
28947;DHT22;16052;50.930;5.326;2023-06-04T06:14:06;17.50;99.90
28947;DHT22;16052;50.930;5.326;2023-06-04T06:16:32;17.50;99.90
28947;DHT22;16052;50.930;5.326;2023-06-04T06:19:01;17.70;99.90
28947;DHT22;16052;50.930;5.326;2023-06-04T06:21:27;17.60;99.90
28947;DHT22;16052;50.930;5.326;2023-06-04T06:23:54;17.70;99.90
28947;DHT22;16052;50.930;5.326;2023-06-04T06:26:20;17.70;99.90
28947;DHT22;16052;50.930;5.326;2023-06-04T06:28:45;17.80;99.90
28947;DHT22;16052;50.930;5.326;2023-06-04T06:31:11;17.90;99.90
28947;DHT22;16052;50.930;5.326;2023-06-04T06:33:37;17.80;99.90
28947;DHT22;16052;50.930;5.326;2023-06-04T06:36:15;17.90;99.90
28947;DHT22;16052;50.930;5.326;2023-06-04T06:38:44;17.90;99.90
28947;DHT22;16052;50.930;5.326;2023-06-04T06:41:10;18.00;99.90
28947;DHT22;16052;50.930;5.326;2023-06-04T06:43:36;18.00;99.90
28947;DHT22;16052;50.930;5.326;2023-06-04T06:46:02;18.00;99.90
28947;DHT22;16052;50.930;5.326;2023-06-04T06:48:27;18.10;99.90
28947;DHT22;16052;50.930;5.326;2023-06-04T06:50:54;18.20;99.90
28947;DHT22;16052;50.930;5.326;2023-06-04T06:53:20;18.30;99.90
28947;DHT22;16052;50.930;5.326;2023-06-04T06:55:45;18.40;99.90
28947;DHT22;16052;50.930;5.326;2023-06-04T06:58:11;18.50;99.90
28947;DHT22;16052;50.930;5.326;2023-06-04T07:00:37;18.50;99.90
28947;DHT22;16052;50.930;5.326;2023-06-04T07:03:02;18.50;99.90
28947;DHT22;16052;50.930;5.326;2023-06-04T07:05:30;18.50;99.90
28947;DHT22;16052;50.930;5.326;2023-06-04T07:07:56;18.60;99.90
28947;DHT22;16052;50.930;5.326;2023-06-04T07:10:23;18.70;99.90
28947;DHT22;16052;50.930;5.326;2023-06-04T07:12:50;18.70;99.90
28947;DHT22;16052;50.930;5.326;2023-06-04T07:15:15;18.90;99.90
28947;DHT22;16052;50.930;5.326;2023-06-04T07:17:41;18.80;50.20
28947;DHT22;16052;50.930;5.326;2023-06-04T07:20:07;18.80;34.30
28947;DHT22;16052;50.930;5.326;2023-06-04T07:22:35;18.90;1.00
28947;DHT22;16052;50.930;5.326;2023-06-04T07:25:01;18.90;1.00
28947;DHT22;16052;50.930;5.326;2023-06-04T07:27:27;18.90;1.00
28947;DHT22;16052;50.930;5.326;2023-06-04T07:29:53;18.90;1.00
28947;DHT22;16052;50.930;5.326;2023-06-04T07:32:19;19.00;1.00
28947;DHT22;16052;50.930;5.326;2023-06-04T07:34:44;19.10;1.00
28947;DHT22;16052;50.930;5.326;2023-06-04T07:37:10;19.10;1.00
28947;DHT22;16052;50.930;5.326;2023-06-04T07:39:38;19.20;1.00
28947;DHT22;16052;50.930;5.326;2023-06-04T07:42:05;19.30;1.00
28947;DHT22;16052;50.930;5.326;2023-06-04T07:44:32;19.50;1.00
28947;DHT22;16052;50.930;5.326;2023-06-04T07:46:58;19.50;1.00
28947;DHT22;16052;50.930;5.326;2023-06-04T07:49:24;19.40;1.00
28947;DHT22;16052;50.930;5.326;2023-06-04T07:51:49;19.40;1.00
28947;DHT22;16052;50.930;5.326;2023-06-04T07:54:15;19.50;99.90
28947;DHT22;16052;50.930;5.326;2023-06-04T07:56:42;19.50;1.00
28947;DHT22;16052;50.930;5.326;2023-06-04T07:59:07;19.60;99.90
28947;DHT22;16052;50.930;5.326;2023-06-04T08:01:33;19.70;99.90
28947;DHT22;16052;50.930;5.326;2023-06-04T08:03:59;19.80;99.90
28947;DHT22;16052;50.930;5.326;2023-06-04T08:06:25;19.80;99.90
28947;DHT22;16052;50.930;5.326;2023-06-04T08:08:52;19.80;99.90
28947;DHT22;16052;50.930;5.326;2023-06-04T08:11:18;19.90;99.90
28947;DHT22;16052;50.930;5.326;2023-06-04T08:13:44;20.10;99.90
28947;DHT22;16052;50.930;5.326;2023-06-04T08:16:10;20.10;99.90
28947;DHT22;16052;50.930;5.326;2023-06-04T08:18:40;20.30;99.90
28947;DHT22;16052;50.930;5.326;2023-06-04T08:21:09;20.40;99.90
28947;DHT22;16052;50.930;5.326;2023-06-04T08:23:36;20.60;99.90
28947;DHT22;16052;50.930;5.326;2023-06-04T08:26:01;20.60;99.90
28947;DHT22;16052;50.930;5.326;2023-06-04T08:28:27;20.60;99.90
28947;DHT22;16052;50.930;5.326;2023-06-04T08:30:53;20.70;18.70
28947;DHT22;16052;50.930;5.326;2023-06-04T08:33:18;20.80;99.90
28947;DHT22;16052;50.930;5.326;2023-06-04T08:35:44;20.90;99.90
28947;DHT22;16052;50.930;5.326;2023-06-04T08:38:09;20.90;1.00
28947;DHT22;16052;50.930;5.326;2023-06-04T08:40:35;21.00;99.90
28947;DHT22;16052;50.930;5.326;2023-06-04T08:43:01;21.10;99.90
28947;DHT22;16052;50.930;5.326;2023-06-04T08:45:27;21.00;1.00
28947;DHT22;16052;50.930;5.326;2023-06-04T08:47:53;21.10;99.90
28947;DHT22;16052;50.930;5.326;2023-06-04T08:50:22;21.20;93.90
28947;DHT22;16052;50.930;5.326;2023-06-04T08:52:54;21.20;1.00
28947;DHT22;16052;50.930;5.326;2023-06-04T08:55:23;21.30;1.00
28947;DHT22;16052;50.930;5.326;2023-06-04T08:57:52;21.50;99.90
28947;DHT22;16052;50.930;5.326;2023-06-04T09:00:19;21.50;1.00
28947;DHT22;16052;50.930;5.326;2023-06-04T09:02:45;21.50;99.90
28947;DHT22;16052;50.930;5.326;2023-06-04T09:05:19;21.60;99.90
28947;DHT22;16052;50.930;5.326;2023-06-04T09:07:46;21.50;1.00
28947;DHT22;16052;50.930;5.326;2023-06-04T09:10:15;21.60;1.00
28947;DHT22;16052;50.930;5.326;2023-06-04T09:12:45;21.80;99.90
28947;DHT22;16052;50.930;5.326;2023-06-04T09:15:11;21.90;99.90
28947;DHT22;16052;50.930;5.326;2023-06-04T09:17:37;22.00;99.90
28947;DHT22;16052;50.930;5.326;2023-06-04T09:20:04;22.00;99.90
28947;DHT22;16052;50.930;5.326;2023-06-04T09:22:34;22.10;42.60
28947;DHT22;16052;50.930;5.326;2023-06-04T09:25:01;22.10;7.10
28947;DHT22;16052;50.930;5.326;2023-06-04T09:27:28;22.20;1.00
28947;DHT22;16052;50.930;5.326;2023-06-04T09:30:02;22.20;1.00
28947;DHT22;16052;50.930;5.326;2023-06-04T09:32:29;22.30;1.00
28947;DHT22;16052;50.930;5.326;2023-06-04T09:35:07;22.30;1.00
28947;DHT22;16052;50.930;5.326;2023-06-04T09:37:34;22.40;1.00
28947;DHT22;16052;50.930;5.326;2023-06-04T09:40:00;22.40;99.90
28947;DHT22;16052;50.930;5.326;2023-06-04T09:42:26;22.50;99.90
28947;DHT22;16052;50.930;5.326;2023-06-04T09:44:52;22.50;99.90
28947;DHT22;16052;50.930;5.326;2023-06-04T09:47:17;22.50;99.90
28947;DHT22;16052;50.930;5.326;2023-06-04T09:49:47;22.60;70.90
28947;DHT22;16052;50.930;5.326;2023-06-04T09:52:13;22.80;11.80
28947;DHT22;16052;50.930;5.326;2023-06-04T09:54:40;22.80;21.50
28947;DHT22;16052;50.930;5.326;2023-06-04T09:57:17;22.90;1.00
28947;DHT22;16052;50.930;5.326;2023-06-04T09:59:49;22.80;1.00
28947;DHT22;16052;50.930;5.326;2023-06-04T10:02:22;22.90;1.00
28947;DHT22;16052;50.930;5.326;2023-06-04T10:04:56;23.00;1.00
28947;DHT22;16052;50.930;5.326;2023-06-04T10:07:25;23.10;1.00
28947;DHT22;16052;50.930;5.326;2023-06-04T10:09:52;23.10;1.00
28947;DHT22;16052;50.930;5.326;2023-06-04T10:12:25;23.10;1.00
28947;DHT22;16052;50.930;5.326;2023-06-04T10:14:54;23.10;99.90
28947;DHT22;16052;50.930;5.326;2023-06-04T10:17:22;23.10;99.90
28947;DHT22;16052;50.930;5.326;2023-06-04T10:19:49;23.20;99.90
28947;DHT22;16052;50.930;5.326;2023-06-04T10:22:17;23.30;99.90
28947;DHT22;16052;50.930;5.326;2023-06-04T10:24:43;23.40;99.90
28947;DHT22;16052;50.930;5.326;2023-06-04T10:27:10;23.40;99.90
28947;DHT22;16052;50.930;5.326;2023-06-04T10:29:37;23.40;99.90
28947;DHT22;16052;50.930;5.326;2023-06-04T10:32:03;23.40;99.90
28947;DHT22;16052;50.930;5.326;2023-06-04T10:34:30;23.40;99.90
28947;DHT22;16052;50.930;5.326;2023-06-04T10:36:56;23.50;99.90
28947;DHT22;16052;50.930;5.326;2023-06-04T10:39:31;23.60;99.90
28947;DHT22;16052;50.930;5.326;2023-06-04T10:42:01;23.50;99.90
28947;DHT22;16052;50.930;5.326;2023-06-04T10:44:29;23.60;99.90
28947;DHT22;16052;50.930;5.326;2023-06-04T10:46:56;23.60;99.90
28947;DHT22;16052;50.930;5.326;2023-06-04T10:49:29;23.70;99.90
28947;DHT22;16052;50.930;5.326;2023-06-04T10:51:55;23.80;99.90
28947;DHT22;16052;50.930;5.326;2023-06-04T10:54:28;23.80;99.90
28947;DHT22;16052;50.930;5.326;2023-06-04T10:56:54;23.90;99.90
28947;DHT22;16052;50.930;5.326;2023-06-04T10:59:20;24.10;99.90
28947;DHT22;16052;50.930;5.326;2023-06-04T11:01:46;24.20;99.90
28947;DHT22;16052;50.930;5.326;2023-06-04T11:04:25;24.30;99.90
28947;DHT22;16052;50.930;5.326;2023-06-04T11:07:05;24.10;99.90
28947;DHT22;16052;50.930;5.326;2023-06-04T11:09:35;24.20;99.90
28947;DHT22;16052;50.930;5.326;2023-06-04T11:12:05;24.40;99.90
28947;DHT22;16052;50.930;5.326;2023-06-04T11:14:31;24.50;99.90
28947;DHT22;16052;50.930;5.326;2023-06-04T11:16:57;24.60;99.90
28947;DHT22;16052;50.930;5.326;2023-06-04T11:19:23;24.60;99.90
28947;DHT22;16052;50.930;5.326;2023-06-04T11:21:49;24.60;99.90
28947;DHT22;16052;50.930;5.326;2023-06-04T11:24:16;24.70;99.90
28947;DHT22;16052;50.930;5.326;2023-06-04T11:26:42;24.70;99.90
28947;DHT22;16052;50.930;5.326;2023-06-04T11:29:11;24.80;38.60
28947;DHT22;16052;50.930;5.326;2023-06-04T11:31:47;24.80;8.00
28947;DHT22;16052;50.930;5.326;2023-06-04T11:34:29;24.90;1.00
28947;DHT22;16052;50.930;5.326;2023-06-04T11:36:56;24.90;1.00
28947;DHT22;16052;50.930;5.326;2023-06-04T11:39:22;24.90;1.00
28947;DHT22;16052;50.930;5.326;2023-06-04T11:41:50;25.00;1.00
28947;DHT22;16052;50.930;5.326;2023-06-04T11:44:19;25.10;1.00
28947;DHT22;16052;50.930;5.326;2023-06-04T11:46:45;25.10;1.00
28947;DHT22;16052;50.930;5.326;2023-06-04T11:49:18;25.10;1.00
28947;DHT22;16052;50.930;5.326;2023-06-04T11:51:51;25.20;1.00
28947;DHT22;16052;50.930;5.326;2023-06-04T11:54:20;25.20;1.00
28947;DHT22;16052;50.930;5.326;2023-06-04T11:56:48;25.20;1.00
28947;DHT22;16052;50.930;5.326;2023-06-04T11:59:15;25.30;1.00
28947;DHT22;16052;50.930;5.326;2023-06-04T12:01:43;25.40;1.00
28947;DHT22;16052;50.930;5.326;2023-06-04T12:04:16;25.40;1.00
28947;DHT22;16052;50.930;5.326;2023-06-04T12:06:59;25.50;1.00
28947;DHT22;16052;50.930;5.326;2023-06-04T12:09:33;25.60;1.00
28947;DHT22;16052;50.930;5.326;2023-06-04T12:12:07;25.60;1.00
28947;DHT22;16052;50.930;5.326;2023-06-04T12:14:33;25.70;1.00
28947;DHT22;16052;50.930;5.326;2023-06-04T12:17:09;25.70;1.00
28947;DHT22;16052;50.930;5.326;2023-06-04T12:19:47;25.70;1.00
28947;DHT22;16052;50.930;5.326;2023-06-04T12:22:16;25.80;99.90
28947;DHT22;16052;50.930;5.326;2023-06-04T12:24:48;25.90;99.90
28947;DHT22;16052;50.930;5.326;2023-06-04T12:27:14;25.90;99.90
28947;DHT22;16052;50.930;5.326;2023-06-04T12:29:40;25.90;99.90
28947;DHT22;16052;50.930;5.326;2023-06-04T12:32:09;26.00;99.90
28947;DHT22;16052;50.930;5.326;2023-06-04T12:34:41;26.10;99.90
28947;DHT22;16052;50.930;5.326;2023-06-04T12:37:07;26.20;99.90
28947;DHT22;16052;50.930;5.326;2023-06-04T12:39:34;26.20;99.90
28947;DHT22;16052;50.930;5.326;2023-06-04T12:42:07;26.30;99.90
28947;DHT22;16052;50.930;5.326;2023-06-04T12:44:40;26.40;99.90
28947;DHT22;16052;50.930;5.326;2023-06-04T12:47:06;26.40;99.90
28947;DHT22;16052;50.930;5.326;2023-06-04T12:49:32;26.40;99.90
28947;DHT22;16052;50.930;5.326;2023-06-04T12:51:58;26.40;99.90
28947;DHT22;16052;50.930;5.326;2023-06-04T12:54:24;26.40;99.90
28947;DHT22;16052;50.930;5.326;2023-06-04T12:56:50;26.30;99.90
28947;DHT22;16052;50.930;5.326;2023-06-04T12:59:16;26.40;99.90
28947;DHT22;16052;50.930;5.326;2023-06-04T13:01:42;26.40;99.90
28947;DHT22;16052;50.930;5.326;2023-06-04T13:04:08;26.50;99.90
28947;DHT22;16052;50.930;5.326;2023-06-04T13:06:35;26.60;99.90
28947;DHT22;16052;50.930;5.326;2023-06-04T13:09:01;26.50;99.90
28947;DHT22;16052;50.930;5.326;2023-06-04T13:11:27;26.60;99.90
28947;DHT22;16052;50.930;5.326;2023-06-04T13:13:53;26.70;99.90
28947;DHT22;16052;50.930;5.326;2023-06-04T13:16:18;26.70;99.90
28947;DHT22;16052;50.930;5.326;2023-06-04T13:18:44;26.80;99.90
28947;DHT22;16052;50.930;5.326;2023-06-04T13:21:10;26.90;99.90
28947;DHT22;16052;50.930;5.326;2023-06-04T13:23:35;26.90;99.90
28947;DHT22;16052;50.930;5.326;2023-06-04T13:26:01;26.90;99.90
28947;DHT22;16052;50.930;5.326;2023-06-04T13:28:27;27.00;99.90
28947;DHT22;16052;50.930;5.326;2023-06-04T13:30:52;27.00;99.90
28947;DHT22;16052;50.930;5.326;2023-06-04T13:33:18;27.10;99.90
28947;DHT22;16052;50.930;5.326;2023-06-04T13:35:45;27.10;99.90
28947;DHT22;16052;50.930;5.326;2023-06-04T13:38:11;27.20;99.90
28947;DHT22;16052;50.930;5.326;2023-06-04T13:40:38;27.30;99.90
28947;DHT22;16052;50.930;5.326;2023-06-04T13:43:05;27.30;99.90
28947;DHT22;16052;50.930;5.326;2023-06-04T13:45:31;27.30;99.90
28947;DHT22;16052;50.930;5.326;2023-06-04T13:47:56;27.40;99.90
28947;DHT22;16052;50.930;5.326;2023-06-04T13:50:28;27.40;99.90
28947;DHT22;16052;50.930;5.326;2023-06-04T13:52:53;27.40;99.90
28947;DHT22;16052;50.930;5.326;2023-06-04T13:55:19;27.50;99.90
28947;DHT22;16052;50.930;5.326;2023-06-04T13:57:45;27.40;99.90
28947;DHT22;16052;50.930;5.326;2023-06-04T14:00:11;27.50;99.90
28947;DHT22;16052;50.930;5.326;2023-06-04T14:02:39;27.60;99.90
28947;DHT22;16052;50.930;5.326;2023-06-04T14:05:05;27.60;99.90
28947;DHT22;16052;50.930;5.326;2023-06-04T14:07:31;27.60;99.90
28947;DHT22;16052;50.930;5.326;2023-06-04T14:09:56;27.60;99.90
28947;DHT22;16052;50.930;5.326;2023-06-04T14:12:23;27.60;99.90
28947;DHT22;16052;50.930;5.326;2023-06-04T14:14:49;27.60;99.90
28947;DHT22;16052;50.930;5.326;2023-06-04T14:17:15;27.70;99.90
28947;DHT22;16052;50.930;5.326;2023-06-04T14:19:40;27.70;99.90
28947;DHT22;16052;50.930;5.326;2023-06-04T14:22:06;27.60;99.90
28947;DHT22;16052;50.930;5.326;2023-06-04T14:24:32;27.70;99.90
28947;DHT22;16052;50.930;5.326;2023-06-04T14:26:57;27.70;99.90
28947;DHT22;16052;50.930;5.326;2023-06-04T14:29:23;27.80;99.90
28947;DHT22;16052;50.930;5.326;2023-06-04T14:31:49;27.80;99.90
28947;DHT22;16052;50.930;5.326;2023-06-04T14:34:15;27.90;99.90
28947;DHT22;16052;50.930;5.326;2023-06-04T14:36:41;28.00;99.90
28947;DHT22;16052;50.930;5.326;2023-06-04T14:39:06;28.10;99.90
28947;DHT22;16052;50.930;5.326;2023-06-04T14:41:32;28.10;99.90
28947;DHT22;16052;50.930;5.326;2023-06-04T14:43:58;28.10;99.90
28947;DHT22;16052;50.930;5.326;2023-06-04T14:46:24;28.10;99.90
28947;DHT22;16052;50.930;5.326;2023-06-04T14:48:51;28.10;99.90
28947;DHT22;16052;50.930;5.326;2023-06-04T14:51:16;28.10;99.90
28947;DHT22;16052;50.930;5.326;2023-06-04T14:53:42;28.20;97.10
28947;DHT22;16052;50.930;5.326;2023-06-04T14:56:08;28.40;90.80
28947;DHT22;16052;50.930;5.326;2023-06-04T14:58:34;28.40;89.50
28947;DHT22;16052;50.930;5.326;2023-06-04T15:01:00;28.40;91.30
28947;DHT22;16052;50.930;5.326;2023-06-04T15:03:26;28.40;75.00
28947;DHT22;16052;50.930;5.326;2023-06-04T15:05:52;28.40;60.20
28947;DHT22;16052;50.930;5.326;2023-06-04T15:08:19;28.50;45.20
28947;DHT22;16052;50.930;5.326;2023-06-04T15:10:45;28.50;28.10
28947;DHT22;16052;50.930;5.326;2023-06-04T15:13:11;28.50;20.90
28947;DHT22;16052;50.930;5.326;2023-06-04T15:15:36;28.50;25.10
28947;DHT22;16052;50.930;5.326;2023-06-04T15:18:02;28.60;56.80
28947;DHT22;16052;50.930;5.326;2023-06-04T15:20:28;28.50;28.40
28947;DHT22;16052;50.930;5.326;2023-06-04T15:22:54;28.50;31.40
28947;DHT22;16052;50.930;5.326;2023-06-04T15:25:20;28.50;17.30
28947;DHT22;16052;50.930;5.326;2023-06-04T15:27:46;28.40;12.90
28947;DHT22;16052;50.930;5.326;2023-06-04T15:30:11;28.30;1.00
28947;DHT22;16052;50.930;5.326;2023-06-04T15:32:37;28.30;1.00
28947;DHT22;16052;50.930;5.326;2023-06-04T15:35:04;28.40;1.00
28947;DHT22;16052;50.930;5.326;2023-06-04T15:37:30;28.30;1.00
28947;DHT22;16052;50.930;5.326;2023-06-04T15:39:55;28.30;1.00
28947;DHT22;16052;50.930;5.326;2023-06-04T15:42:23;28.40;1.00